Time;durP1;ratioP1;P1;durP2;ratioP2;P2;SDS_P1;SDS_P2;PMS_P1;PMS_P2;Temp;Humidity;BMP_temperature;BMP_pressure;BME280_temperature;BME280_humidity;BME280_pressure;Samples;Min_cycle;Max_cycle;Signal;HPM_P1;HPM_P2
2022/04/25 00:00:59;;;;;;;19.48;11.20;;;14.30;91.40;;;;;;5017181;28;20432;-64
2022/04/25 00:03:25;;;;;;;22.20;11.23;;;14.40;90.80;;;;;;5017309;28;20053;-62
2022/04/25 00:05:51;;;;;;;23.38;12.30;;;14.30;90.70;;;;;;5017446;28;20018;-63
2022/04/25 00:08:17;;;;;;;16.95;10.48;;;14.20;92.20;;;;;;5016947;28;20030;-61
2022/04/25 00:10:42;;;;;;;21.48;12.05;;;14.10;92.60;;;;;;5016616;28;20033;-61
2022/04/25 00:13:08;;;;;;;18.20;10.30;;;14.10;91.60;;;;;;5016776;28;20050;-62
2022/04/25 00:15:34;;;;;;;24.85;11.98;;;14.20;91.90;;;;;;5016814;28;20104;-62
2022/04/25 00:17:59;;;;;;;13.55;8.82;;;14.20;92.40;;;;;;5016899;28;20032;-61
2022/04/25 00:20:25;;;;;;;13.65;8.70;;;14.10;93.20;;;;;;5016680;28;20014;-62
2022/04/25 00:22:51;;;;;;;15.35;9.00;;;14.20;92.60;;;;;;5016896;28;20141;-59
2022/04/25 00:25:17;;;;;;;18.00;10.68;;;14.30;92.00;;;;;;5015234;28;20050;-65
2022/04/25 00:27:42;;;;;;;15.25;8.93;;;14.30;93.00;;;;;;5016578;28;20024;-59
2022/04/25 00:30:09;;;;;;;14.77;8.40;;;14.30;94.00;;;;;;5016450;28;20076;-63
2022/04/25 00:32:34;;;;;;;16.83;8.68;;;14.40;93.50;;;;;;5015107;28;20373;-62
2022/04/25 00:35:03;;;;;;;14.73;8.23;;;14.40;92.20;;;;;;5016373;28;20033;-63
2022/04/25 00:37:28;;;;;;;19.15;9.90;;;14.50;92.30;;;;;;5016329;28;20053;-64
2022/04/25 00:39:54;;;;;;;13.68;8.65;;;14.50;92.10;;;;;;5016134;28;20108;-62
2022/04/25 00:42:20;;;;;;;14.85;8.90;;;14.50;92.90;;;;;;5016254;28;20029;-61
2022/04/25 00:44:46;;;;;;;12.95;6.78;;;14.50;92.40;;;;;;5016173;28;20065;-60
2022/04/25 00:47:12;;;;;;;14.50;7.18;;;14.50;91.20;;;;;;5016351;28;20057;-64
2022/04/25 00:49:37;;;;;;;14.65;7.88;;;14.50;91.00;;;;;;5016140;28;20428;-60
2022/04/25 00:52:04;;;;;;;13.55;8.15;;;14.40;91.00;;;;;;5015753;28;20030;-60
2022/04/25 00:54:32;;;;;;;12.63;7.32;;;14.30;91.50;;;;;;5015904;28;20033;-61
2022/04/25 00:56:58;;;;;;;15.80;7.43;;;14.40;92.20;;;;;;5016010;28;20033;-63
2022/04/25 00:59:24;;;;;;;10.07;6.88;;;14.40;93.20;;;;;;5015222;28;20030;-63
2022/04/25 01:01:53;;;;;;;12.18;6.90;;;14.50;92.80;;;;;;5015946;28;20400;-63
2022/04/25 01:04:20;;;;;;;11.15;6.78;;;14.50;91.80;;;;;;5014672;28;20415;-59
2022/04/25 01:06:48;;;;;;;10.35;6.22;;;14.50;90.30;;;;;;5015775;28;20021;-62
2022/04/25 01:09:14;;;;;;;9.25;6.10;;;14.60;90.60;;;;;;5015579;28;20483;-64
2022/04/25 01:11:40;;;;;;;9.70;5.75;;;14.50;90.50;;;;;;5015682;28;20044;-56
2022/04/25 01:14:11;;;;;;;7.68;4.88;;;14.60;90.50;;;;;;5015968;28;20026;-63
2022/04/25 01:16:37;;;;;;;9.88;5.65;;;14.70;90.10;;;;;;5015965;28;20026;-61
2022/04/25 01:19:03;;;;;;;12.73;7.70;;;14.60;89.10;;;;;;5015608;28;20033;-60
2022/04/25 01:21:30;;;;;;;10.73;6.90;;;14.70;88.90;;;;;;5015813;28;20034;-63
2022/04/25 01:29:23;;;;;;;20.77;10.50;;;14.40;90.90;;;;;;5015564;28;20048;-61
2022/04/25 01:31:49;;;;;;;32.75;17.23;;;14.30;91.10;;;;;;5015340;28;20471;-63
2022/04/25 01:34:15;;;;;;;25.08;13.75;;;14.30;90.90;;;;;;5015235;28;20018;-65
2022/04/25 01:36:40;;;;;;;24.55;11.40;;;14.30;91.10;;;;;;5015237;28;20091;-64
2022/04/25 01:39:06;;;;;;;18.20;9.25;;;14.20;91.30;;;;;;5015112;28;20029;-61
2022/04/25 01:41:32;;;;;;;16.02;9.48;;;14.20;92.00;;;;;;5015088;28;20476;-61
2022/04/25 01:43:58;;;;;;;23.13;10.07;;;14.20;92.00;;;;;;5015436;28;20400;-62
2022/04/25 01:46:23;;;;;;;21.73;8.93;;;14.10;92.80;;;;;;5015539;28;20033;-59
2022/04/25 01:48:49;;;;;;;19.65;9.32;;;13.90;94.40;;;;;;5015091;28;20022;-63
2022/04/25 01:51:15;;;;;;;17.10;7.93;;;14.00;94.20;;;;;;5014916;28;20451;-60
2022/04/25 01:53:41;;;;;;;17.92;8.73;;;14.10;97.20;;;;;;5014750;28;20401;-64
2022/04/25 01:56:07;;;;;;;17.85;7.28;;;14.10;97.50;;;;;;5014956;28;20022;-60
2022/04/25 01:58:33;;;;;;;19.75;8.85;;;14.10;98.90;;;;;;5014825;28;20022;-63
2022/04/25 02:00:59;;;;;;;14.20;8.10;;;14.10;99.90;;;;;;5014858;28;20022;-64
2022/04/25 02:03:24;;;;;;;15.75;7.20;;;14.00;99.90;;;;;;5014789;28;20097;-61
2022/04/25 02:05:50;;;;;;;12.55;6.75;;;14.00;99.90;;;;;;5014687;28;20025;-59
2022/04/25 02:08:17;;;;;;;18.80;9.57;;;14.00;99.90;;;;;;5014818;28;20029;-59
2022/04/25 02:11:19;;;;;;;22.38;10.63;;;14.10;99.90;;;;;;5013700;28;20384;-62
2022/04/25 02:13:29;;;;;;;19.65;10.82;;;14.20;99.90;;;;;;5014802;28;20030;-60
2022/04/25 02:15:56;;;;;;;19.75;10.20;;;14.30;99.90;;;;;;5014532;28;20088;-63
2022/04/25 02:18:21;;;;;;;30.30;14.55;;;14.20;99.90;;;;;;5014450;28;20018;-60
2022/04/25 02:20:47;;;;;;;61.03;26.40;;;14.10;99.90;;;;;;5014301;28;20319;-64
2022/04/25 02:23:13;;;;;;;44.45;22.25;;;14.10;99.90;;;;;;5014438;28;20026;-61
2022/04/25 02:25:39;;;;;;;29.83;13.90;;;14.10;99.90;;;;;;5014389;28;20022;-60
2022/04/25 02:28:04;;;;;;;24.45;12.38;;;14.20;99.90;;;;;;5014218;28;20029;-62
2022/04/25 02:30:30;;;;;;;17.40;9.57;;;14.30;99.90;;;;;;5014596;28;20105;-60
2022/04/25 02:32:56;;;;;;;14.48;7.90;;;14.30;99.90;;;;;;5014192;28;20396;-62
2022/04/25 02:35:21;;;;;;;13.45;7.13;;;14.40;99.90;;;;;;5013956;28;20022;-63
2022/04/25 02:37:47;;;;;;;12.15;6.32;;;14.30;99.90;;;;;;5014207;28;20026;-62
2022/04/25 02:40:13;;;;;;;12.52;6.25;;;14.40;99.90;;;;;;5014221;28;20041;-61
2022/04/25 02:42:38;;;;;;;10.80;6.60;;;14.40;99.90;;;;;;5014065;28;20061;-61
2022/04/25 02:45:05;;;;;;;14.70;8.05;;;14.40;99.90;;;;;;5014288;28;20037;-64
2022/04/25 02:47:31;;;;;;;11.68;7.18;;;14.30;99.90;;;;;;5014060;28;20030;-62
2022/04/25 02:49:56;;;;;;;12.68;6.53;;;14.20;99.90;;;;;;5013705;28;20021;-61
2022/04/25 02:52:22;;;;;;;11.82;6.53;;;14.30;99.90;;;;;;5013926;28;20050;-62
2022/04/25 02:54:48;;;;;;;10.07;5.65;;;14.30;99.90;;;;;;5013842;28;20522;-63
2022/04/25 02:57:13;;;;;;;7.00;4.53;;;14.30;99.90;;;;;;5013854;28;20053;-62
2022/04/25 02:59:39;;;;;;;7.45;4.57;;;14.30;99.90;;;;;;5013751;28;20080;-65
2022/04/25 03:02:05;;;;;;;7.75;4.28;;;14.40;99.90;;;;;;5014063;28;20034;-63
2022/04/25 03:04:31;;;;;;;9.43;4.25;;;14.40;99.90;;;;;;5013786;28;20025;-65
2022/04/25 03:06:56;;;;;;;11.30;4.68;;;14.30;99.90;;;;;;5013703;28;20056;-63
2022/04/25 03:09:22;;;;;;;7.20;4.18;;;14.10;99.90;;;;;;5014004;28;20026;-63
2022/04/25 03:11:50;;;;;;;7.13;2.80;;;13.90;99.90;;;;;;5013678;28;20483;-60
2022/04/25 03:14:16;;;;;;;6.90;3.92;;;13.90;99.90;;;;;;5013557;28;20018;-62
2022/04/25 03:16:42;;;;;;;7.05;3.67;;;13.80;99.90;;;;;;5013686;28;20022;-61
2022/04/25 03:19:09;;;;;;;6.93;3.25;;;13.80;99.90;;;;;;5013432;28;20045;-63
2022/04/25 03:21:34;;;;;;;8.88;3.70;;;13.80;99.90;;;;;;5013152;28;20369;-59
2022/04/25 03:24:02;;;;;;;10.13;4.00;;;13.70;99.90;;;;;;5013853;28;20113;-61
2022/04/25 03:26:29;;;;;;;9.30;3.72;;;13.50;99.90;;;;;;5013821;28;20050;-62
2022/04/25 03:28:54;;;;;;;8.52;4.30;;;13.20;99.90;;;;;;5013474;28;20026;-63
2022/04/25 03:31:20;;;;;;;8.45;2.83;;;13.00;99.90;;;;;;5013534;28;20034;-62
2022/04/25 03:33:46;;;;;;;7.28;2.35;;;13.00;99.90;;;;;;5013311;28;20022;-60
2022/04/25 03:36:12;;;;;;;4.70;1.98;;;13.10;99.90;;;;;;5013376;28;20030;-62
2022/04/25 03:38:38;;;;;;;4.80;1.38;;;13.20;99.90;;;;;;5013416;28;20033;-62
2022/04/25 03:41:04;;;;;;;3.08;1.27;;;13.30;99.90;;;;;;5013654;28;20030;-62
2022/04/25 03:43:31;;;;;;;4.22;1.40;;;13.30;99.90;;;;;;5013392;28;20384;-61
2022/04/25 03:45:57;;;;;;;7.13;2.60;;;13.30;99.90;;;;;;5013273;28;20465;-61
2022/04/25 03:48:23;;;;;;;4.30;1.90;;;13.30;99.90;;;;;;5013193;28;20030;-61
2022/04/25 03:50:49;;;;;;;4.10;1.45;;;13.20;99.90;;;;;;5013514;28;20109;-60
2022/04/25 03:53:15;;;;;;;6.40;1.60;;;13.30;99.90;;;;;;5012933;28;20540;-61
2022/04/25 03:58:24;;;;;;;4.47;1.75;;;13.60;99.90;;;;;;5013408;28;20024;-62
2022/04/25 04:00:50;;;;;;;2.53;1.50;;;13.60;99.90;;;;;;5013344;28;20101;-64
2022/04/25 04:03:18;;;;;;;6.22;3.28;;;13.70;99.90;;;;;;5013373;28;20018;-62
2022/04/25 04:05:47;;;;;;;7.72;3.20;;;13.80;99.90;;;;;;5013350;28;20439;-61
2022/04/25 04:08:13;;;;;;;6.07;2.22;;;13.60;99.90;;;;;;5013125;28;20030;-58
2022/04/25 04:10:39;;;;;;;4.95;1.80;;;13.20;99.90;;;;;;5013097;28;20361;-64
2022/04/25 04:13:05;;;;;;;5.78;1.83;;;13.00;99.90;;;;;;5012944;28;20520;-64
2022/04/25 04:15:31;;;;;;;6.57;2.03;;;13.00;99.90;;;;;;5013381;28;20080;-62
2022/04/25 04:17:57;;;;;;;3.45;1.55;;;13.00;99.90;;;;;;5012889;28;20097;-63
2022/04/25 04:20:23;;;;;;;1.98;1.20;;;13.00;99.90;;;;;;5013297;28;20030;-62
2022/04/25 04:22:49;;;;;;;4.07;1.40;;;13.10;99.90;;;;;;5012851;28;20022;-59
2022/04/25 04:25:15;;;;;;;3.28;1.63;;;13.30;99.90;;;;;;5013031;28;20101;-60
2022/04/25 04:27:42;;;;;;;4.78;1.77;;;13.40;99.90;;;;;;5012955;28;20022;-62
2022/04/25 04:30:10;;;;;;;4.13;1.95;;;13.40;99.90;;;;;;5012842;28;20022;-64
2022/04/25 04:32:38;;;;;;;5.10;2.17;;;13.50;99.90;;;;;;5012652;28;20022;-60
2022/04/25 04:35:06;;;;;;;4.50;2.20;;;13.30;99.90;;;;;;5015596;28;20176;-64
2022/04/25 04:37:33;;;;;;;7.05;2.45;;;13.00;99.90;;;;;;5016356;28;20057;-61
2022/04/25 04:42:44;;;;;;;3.38;1.88;;;12.70;99.90;;;;;;5016445;28;20080;-62
2022/04/25 04:45:11;;;;;;;6.18;1.95;;;12.80;99.90;;;;;;5011447;28;20022;-60
2022/04/25 04:47:38;;;;;;;4.78;1.92;;;12.80;99.90;;;;;;5004041;28;20024;-64
2022/04/25 04:50:05;;;;;;;2.97;1.70;;;12.60;99.90;;;;;;5004365;28;20535;-62
2022/04/25 04:52:31;;;;;;;10.55;4.60;;;12.50;99.90;;;;;;5008346;28;20542;-64
2022/04/25 04:54:57;;;;;;;24.13;14.63;;;12.40;99.90;;;;;;5015049;28;20018;-62
2022/04/25 04:57:23;;;;;;;14.63;7.38;;;12.40;99.90;;;;;;5015186;28;20014;-61
2022/04/25 04:59:48;;;;;;;9.00;4.00;;;12.30;99.90;;;;;;5008722;28;20376;-62
2022/04/25 05:02:16;;;;;;;6.80;3.25;;;12.40;99.90;;;;;;4995510;28;20027;-67
2022/04/25 05:04:46;;;;;;;7.68;3.58;;;12.40;99.90;;;;;;5001296;28;20041;-61
2022/04/25 05:07:11;;;;;;;7.55;3.30;;;12.30;99.90;;;;;;5005847;28;20032;-63
2022/04/25 05:09:37;;;;;;;9.70;3.17;;;12.30;99.90;;;;;;5004569;28;20022;-62
2022/04/25 05:12:12;;;;;;;6.85;3.53;;;12.40;99.90;;;;;;4993369;28;20041;-59
2022/04/25 05:14:38;;;;;;;28.05;17.02;;;12.40;99.90;;;;;;4994012;28;20030;-59
2022/04/25 05:17:03;;;;;;;60.45;30.42;;;12.50;99.90;;;;;;4993917;28;20033;-58
2022/04/25 05:19:29;;;;;;;58.85;28.30;;;12.60;99.90;;;;;;4995449;28;20026;-60
2022/04/25 05:21:55;;;;;;;160.90;74.25;;;12.70;99.90;;;;;;4993654;28;20027;-56
2022/04/25 05:24:21;;;;;;;165.20;73.88;;;12.80;99.90;;;;;;4994637;28;20034;-58
2022/04/25 05:26:46;;;;;;;188.00;84.47;;;12.80;99.90;;;;;;4992231;28;20073;-58
2022/04/25 05:29:14;;;;;;;175.18;84.53;;;12.90;99.90;;;;;;4993037;28;20100;-59
2022/04/25 05:31:40;;;;;;;268.75;131.23;;;13.10;99.90;;;;;;4993791;28;20138;-59
2022/04/25 05:34:05;;;;;;;247.68;124.18;;;13.40;99.90;;;;;;4994903;28;20101;-59
2022/04/25 05:36:31;;;;;;;265.67;142.82;;;13.40;99.90;;;;;;4995667;28;20029;-59
2022/04/25 05:38:57;;;;;;;265.05;151.27;;;13.30;99.90;;;;;;4983044;28;20432;-61
2022/04/25 05:41:23;;;;;;;108.95;63.72;;;13.30;99.90;;;;;;4982304;28;20037;-59
2022/04/25 05:43:49;;;;;;;81.05;47.50;;;13.50;99.90;;;;;;4983144;28;20023;-58
2022/04/25 05:46:15;;;;;;;70.22;41.78;;;13.70;99.90;;;;;;4981830;28;20034;-60
2022/04/25 05:54:12;;;;;;;28.83;16.63;;;14.50;99.90;;;;;;4974481;28;20080;-62
2022/04/25 05:56:39;;;;;;;19.95;12.82;;;14.50;99.90;;;;;;4973990;28;20104;-61
2022/04/25 05:59:05;;;;;;;18.98;10.63;;;14.60;99.90;;;;;;4974398;28;20027;-61
2022/04/25 06:01:30;;;;;;;14.23;8.93;;;14.70;99.90;;;;;;4974669;28;20049;-62
2022/04/25 06:03:56;;;;;;;14.18;8.25;;;14.60;99.90;;;;;;4983889;28;20030;-61
2022/04/25 06:06:23;;;;;;;18.20;8.25;;;14.60;99.90;;;;;;4997644;28;20426;-61
2022/04/25 06:08:49;;;;;;;10.63;7.15;;;14.70;99.90;;;;;;4993916;28;20125;-59
2022/04/25 06:11:15;;;;;;;11.32;6.47;;;14.80;99.90;;;;;;5000599;28;20117;-60
2022/04/25 06:13:44;;;;;;;12.52;6.80;;;15.20;99.90;;;;;;5009658;28;20108;-60
2022/04/25 06:16:11;;;;;;;12.52;6.88;;;15.30;99.90;;;;;;4996012;28;20105;-60
2022/04/25 06:18:37;;;;;;;12.52;5.85;;;15.20;99.90;;;;;;4983285;28;20437;-60
2022/04/25 06:21:03;;;;;;;9.30;5.78;;;15.30;99.90;;;;;;4981919;28;20030;-63
2022/04/25 06:23:30;;;;;;;8.68;4.60;;;15.50;99.90;;;;;;4987358;28;20049;-62
2022/04/25 06:25:57;;;;;;;7.72;5.15;;;15.80;99.90;;;;;;4990502;28;20065;-59
2022/04/25 06:28:24;;;;;;;9.15;5.00;;;16.00;99.90;;;;;;4989422;28;20033;-58
2022/04/25 06:30:52;;;;;;;7.22;4.97;;;16.40;99.90;;;;;;4996517;28;20379;-61
2022/04/25 06:33:18;;;;;;;6.28;3.60;;;16.60;97.90;;;;;;4994285;28;20038;-62
2022/04/25 06:35:44;;;;;;;2.72;1.50;;;18.40;85.60;;;;;;5001025;28;20041;-66
2022/04/25 06:38:11;;;;;;;1.33;1.05;;;22.10;65.30;;;;;;5000125;28;20357;-64
2022/04/25 06:40:37;;;;;;;6.07;0.85;;;25.00;59.00;;;;;;5004015;28;20029;-65
2022/04/25 06:43:04;;;;;;;1.73;1.00;;;26.80;49.20;;;;;;5010665;28;20030;-64
2022/04/25 06:45:30;;;;;;;3.95;1.63;;;28.40;48.60;;;;;;4991201;28;20037;-65
2022/04/25 06:47:56;;;;;;;3.72;1.42;;;29.30;42.70;;;;;;4983886;28;20045;-66
2022/04/25 06:50:23;;;;;;;2.45;1.00;;;29.80;40.90;;;;;;4997542;28;20032;-61
2022/04/25 06:52:48;;;;;;;2.78;1.25;;;30.40;39.60;;;;;;4991257;28;20073;-62
2022/04/25 06:55:14;;;;;;;1.80;1.48;;;30.00;40.00;;;;;;4983082;28;20488;-61
2022/04/25 06:57:40;;;;;;;4.57;1.63;;;30.50;39.30;;;;;;4989810;28;20030;-65
2022/04/25 07:00:27;;;;;;;2.30;1.10;;;30.90;37.50;;;;;;4997083;28;20030;-65
2022/04/25 07:02:53;;;;;;;2.53;1.38;;;30.20;37.00;;;;;;4991278;28;20092;-61
2022/04/25 07:05:19;;;;;;;3.72;1.70;;;29.20;38.70;;;;;;4991637;28;20023;-60
2022/04/25 07:07:45;;;;;;;2.15;1.45;;;28.00;39.00;;;;;;4988766;28;20034;-61
2022/04/25 07:10:11;;;;;;;2.88;1.27;;;28.70;39.60;;;;;;4990301;28;20022;-61
2022/04/25 07:12:37;;;;;;;3.20;1.40;;;29.30;39.30;;;;;;4977964;28;20454;-61
2022/04/25 07:15:03;;;;;;;5.47;1.85;;;30.70;37.10;;;;;;4967238;28;20023;-58
2022/04/25 07:17:29;;;;;;;2.75;1.25;;;30.70;37.00;;;;;;4975501;28;20042;-59
2022/04/25 07:19:55;;;;;;;4.75;1.50;;;31.40;36.10;;;;;;4995068;28;20029;-60
2022/04/25 07:30:34;;;;;;;4.05;1.08;;;32.40;33.30;;;;;;4991400;28;20499;-61
2022/04/25 07:33:00;;;;;;;1.80;0.88;;;32.50;32.00;;;;;;4991440;28;20038;-60
2022/04/25 07:35:27;;;;;;;3.28;1.25;;;32.00;32.30;;;;;;4990815;28;20027;-62
2022/04/25 07:37:55;;;;;;;2.38;1.15;;;31.70;33.20;;;;;;4981413;28;20038;-62
2022/04/25 07:40:22;;;;;;;2.03;0.52;;;32.30;33.30;;;;;;4991525;28;20142;-62
2022/04/25 07:42:48;;;;;;;2.78;0.60;;;32.80;32.40;;;;;;4988784;28;20030;-61
2022/04/25 07:45:14;;;;;;;3.63;0.63;;;32.60;31.90;;;;;;4986097;28;20508;-65
2022/04/25 07:47:43;;;;;;;2.45;0.63;;;32.40;32.20;;;;;;4979089;28;20051;-61
2022/04/25 07:50:22;;;;;;;3.13;0.70;;;32.30;32.60;;;;;;4985610;28;20033;-61
2022/04/25 07:52:56;;;;;;;1.50;0.70;;;32.80;31.50;;;;;;4976008;28;20145;-64
2022/04/25 07:55:22;;;;;;;;;;;32.20;31.60;;;;;;4975006;28;20031;-64
2022/04/25 07:57:48;;;;;;;1.00;0.43;;;32.90;31.40;;;;;;4980388;28;19911;-63
2022/04/25 08:00:14;;;;;;;5.40;2.00;;;32.70;33.00;;;;;;4980469;28;20041;-65
2022/04/25 08:02:40;;;;;;;3.13;1.58;;;30.60;32.90;;;;;;4980430;28;20440;-60
2022/04/25 08:05:06;;;;;;;1.85;0.47;;;31.20;33.90;;;;;;4986135;28;20027;-63
2022/04/25 08:07:31;;;;;;;0.47;0.20;;;28.70;33.30;;;;;;4976521;28;20362;-60
2022/04/25 08:09:57;;;;;;;0.38;0.30;;;26.20;35.50;;;;;;4983412;28;20022;-62
2022/04/25 08:17:59;;;;;;;1.15;0.50;;;25.30;38.30;;;;;;4976017;28;20510;-63
2022/04/25 08:20:30;;;;;;;0.43;0.40;;;26.00;38.00;;;;;;4990287;28;20057;-61
2022/04/25 08:22:57;;;;;;;0.43;0.30;;;26.10;36.70;;;;;;4991842;28;20018;-63
2022/04/25 08:25:23;;;;;;;0.70;0.47;;;28.10;35.30;;;;;;4993288;28;20023;-62
2022/04/25 08:27:49;;;;;;;2.60;0.60;;;29.40;33.80;;;;;;4991779;28;20015;-61
2022/04/25 08:30:15;;;;;;;1.48;0.30;;;28.90;34.00;;;;;;4991795;28;20389;-63
2022/04/25 08:32:41;;;;;;;0.57;0.43;;;29.50;34.30;;;;;;4991552;28;20070;-64
2022/04/25 08:35:09;;;;;;;0.50;0.40;;;29.20;33.40;;;;;;4991507;28;20030;-63
2022/04/25 08:37:35;;;;;;;0.82;0.45;;;28.60;35.10;;;;;;4976719;28;20054;-62
2022/04/25 08:40:01;;;;;;;2.15;0.50;;;28.40;35.80;;;;;;4990237;28;20510;-63
2022/04/25 08:42:26;;;;;;;1.23;0.52;;;28.10;35.50;;;;;;4989020;28;20031;-64
2022/04/25 08:44:54;;;;;;;1.10;0.57;;;28.60;35.70;;;;;;4992294;28;20029;-62
2022/04/25 08:47:23;;;;;;;0.65;0.40;;;29.00;36.60;;;;;;4988381;28;20629;-64
2022/04/25 08:49:49;;;;;;;0.32;0.30;;;29.30;35.50;;;;;;4990194;28;20026;-63
2022/04/25 08:52:15;;;;;;;0.60;0.45;;;29.80;35.90;;;;;;4988168;28;20046;-68
2022/04/25 08:54:43;;;;;;;1.55;0.63;;;29.70;35.20;;;;;;4989219;28;20026;-66
2022/04/25 08:57:09;;;;;;;1.98;0.40;;;30.20;34.80;;;;;;4990768;28;20025;-63
2022/04/25 08:59:37;;;;;;;0.60;0.40;;;30.70;33.00;;;;;;4989953;28;20058;-66
2022/04/25 09:02:03;;;;;;;2.10;0.50;;;29.90;33.70;;;;;;4991022;28;20023;-66
2022/04/25 09:04:29;;;;;;;0.65;0.38;;;29.20;33.60;;;;;;4989201;28;20032;-62
2022/04/25 09:06:55;;;;;;;1.45;0.68;;;29.20;35.00;;;;;;4988250;28;20022;-62
2022/04/25 09:09:21;;;;;;;1.10;0.43;;;29.40;33.80;;;;;;5001032;28;20080;-67
2022/04/25 09:14:32;;;;;;;1.17;0.30;;;29.30;35.70;;;;;;4998045;28;20072;-61
2022/04/25 09:17:03;;;;;;;2.40;0.47;;;29.30;34.80;;;;;;5002916;28;20018;-64
2022/04/25 09:19:33;;;;;;;1.33;0.50;;;28.90;37.20;;;;;;4999856;28;20037;-65
2022/04/25 09:22:00;;;;;;;1.63;0.65;;;28.50;35.20;;;;;;4997169;28;20072;-68
2022/04/25 09:24:34;;;;;;;1.88;0.43;;;28.40;36.70;;;;;;4993628;28;20029;-70
2022/04/25 09:27:18;;;;;;;0.55;0.38;;;28.50;37.70;;;;;;4993112;28;20046;-62
2022/04/25 09:29:46;;;;;;;1.10;0.40;;;28.00;36.90;;;;;;4999411;28;20032;-62
2022/04/25 09:32:13;;;;;;;0.73;0.50;;;28.20;38.50;;;;;;4998916;28;20046;-64
2022/04/25 09:37:44;;;;;;;1.13;0.40;;;29.10;39.40;;;;;;4991986;28;20049;-54
2022/04/25 09:40:10;;;;;;;0.82;0.40;;;29.10;35.60;;;;;;4992886;28;20419;-68
2022/04/25 09:42:37;;;;;;;0.30;0.30;;;28.50;34.10;;;;;;4980519;28;20057;-61
2022/04/25 09:45:04;;;;;;;0.70;0.20;;;28.50;37.20;;;;;;4995461;28;20026;-61
2022/04/25 09:47:36;;;;;;;1.48;0.40;;;29.00;35.40;;;;;;4994943;28;20089;-63
2022/04/25 09:50:15;;;;;;;2.15;0.30;;;28.80;34.60;;;;;;4994730;28;20500;-63
2022/04/25 09:52:55;;;;;;;1.45;0.32;;;28.90;35.80;;;;;;4975331;28;20043;-63
2022/04/25 09:55:22;;;;;;;1.30;0.30;;;28.20;37.00;;;;;;4979807;28;20026;-62
2022/04/25 09:57:50;;;;;;;0.80;0.40;;;28.40;35.40;;;;;;4992121;28;20362;-60
2022/04/25 10:00:33;;;;;;;0.30;0.22;;;28.50;33.90;;;;;;4991325;28;20164;-64
2022/04/25 10:03:01;;;;;;;1.67;0.30;;;28.90;33.30;;;;;;4993227;28;20026;-63
2022/04/25 10:05:48;;;;;;;0.80;0.43;;;28.30;35.10;;;;;;4994109;28;20432;-63
2022/04/25 10:08:17;;;;;;;0.63;0.40;;;28.70;39.20;;;;;;4984060;28;20050;-64
2022/04/25 10:10:48;;;;;;;1.35;0.35;;;28.70;36.70;;;;;;4978596;28;20065;-64
2022/04/25 10:13:15;;;;;;;1.52;0.28;;;29.10;35.60;;;;;;4982338;28;20478;-63
2022/04/25 10:15:41;;;;;;;1.02;0.40;;;29.60;38.30;;;;;;4990365;28;20028;-64
2022/04/25 10:18:09;;;;;;;0.65;0.40;;;29.40;36.10;;;;;;4990564;28;20484;-61
2022/04/25 10:20:36;;;;;;;1.40;0.20;;;29.20;33.70;;;;;;4990381;28;20366;-62
2022/04/25 10:23:09;;;;;;;0.95;0.40;;;29.20;33.80;;;;;;4989320;28;20097;-63
2022/04/25 10:25:36;;;;;;;0.20;0.20;;;29.30;33.40;;;;;;4989820;28;20185;-63
2022/04/25 10:28:11;;;;;;;0.98;0.30;;;29.00;34.40;;;;;;4994822;28;20042;-64
2022/04/25 10:30:38;;;;;;;1.30;0.47;;;29.40;32.70;;;;;;4996030;28;20473;-64
2022/04/25 10:33:21;;;;;;;2.13;0.60;;;29.60;32.90;;;;;;4984731;28;20449;-63
2022/04/25 10:35:48;;;;;;;;;;;30.00;32.20;;;;;;4973177;28;20023;-63
2022/04/25 10:38:50;;;;;;;0.60;0.40;;;30.40;32.50;;;;;;4972985;28;19916;-63
2022/04/25 10:44:33;;;;;;;1.58;0.52;;;30.50;33.30;;;;;;4972805;28;20037;-66
2022/04/25 10:47:05;;;;;;;0.85;0.30;;;30.70;33.20;;;;;;4962205;28;20034;-62
2022/04/25 10:49:36;;;;;;;0.98;0.40;;;30.60;33.30;;;;;;4998017;28;20033;-63
2022/04/25 10:52:04;;;;;;;1.88;0.70;;;30.20;36.20;;;;;;5003367;28;20052;-60
2022/04/25 10:54:49;;;;;;;1.63;0.40;;;30.20;32.30;;;;;;5004030;28;20381;-61
2022/04/25 10:57:16;;;;;;;0.25;0.22;;;30.60;32.80;;;;;;5004988;28;20026;-63
2022/04/25 10:59:42;;;;;;;0.40;0.30;;;30.50;32.70;;;;;;5010643;28;20064;-62
2022/04/25 11:02:25;;;;;;;1.65;0.55;;;30.40;31.70;;;;;;5011458;28;20100;-63
2022/04/25 11:05:09;;;;;;;1.65;0.45;;;30.60;34.00;;;;;;5010978;28;20384;-63
2022/04/25 11:07:37;;;;;;;1.35;0.30;;;30.00;30.70;;;;;;5007721;28;20046;-63
2022/04/25 11:10:04;;;;;;;0.45;0.30;;;30.10;35.20;;;;;;4984038;28;20031;-62
2022/04/25 11:12:56;;;;;;;0.88;0.38;;;30.80;33.80;;;;;;4980690;28;20031;-63
2022/04/25 11:15:52;;;;;;;1.75;0.30;;;30.80;32.00;;;;;;4977858;28;20114;-64
2022/04/25 11:18:28;;;;;;;1.00;0.32;;;30.50;31.70;;;;;;4967468;28;20035;-60
2022/04/25 11:21:04;;;;;;;0.28;0.28;;;30.30;33.30;;;;;;4968678;28;20413;-68
2022/04/25 11:23:32;;;;;;;0.93;0.20;;;30.00;32.80;;;;;;4986306;28;20398;-63
2022/04/25 11:26:04;;;;;;;0.50;0.30;;;30.00;31.10;;;;;;4989734;28;20026;-61
2022/04/25 11:28:32;;;;;;;1.30;0.30;;;29.90;32.50;;;;;;4988570;28;20066;-62
2022/04/25 11:31:13;;;;;;;0.85;0.30;;;30.10;31.50;;;;;;4988170;28;20034;-64
2022/04/25 11:33:44;;;;;;;0.35;0.30;;;30.50;30.60;;;;;;4982481;28;20108;-65
2022/04/25 11:36:11;;;;;;;0.22;0.20;;;30.80;32.30;;;;;;4983425;28;20423;-58
2022/04/25 11:41:38;;;;;;;0.50;0.40;;;30.50;32.30;;;;;;4987440;28;20038;-55
2022/04/25 11:44:05;;;;;;;0.45;0.38;;;29.80;34.30;;;;;;4988703;28;20511;-59
2022/04/25 11:46:33;;;;;;;1.05;0.40;;;30.00;37.00;;;;;;4994298;28;20041;-63
2022/04/25 11:48:59;;;;;;;0.52;0.40;;;30.00;32.40;;;;;;4993360;28;20077;-63
2022/04/25 11:51:28;;;;;;;1.73;0.30;;;30.20;31.00;;;;;;4995466;28;20385;-63
2022/04/25 11:53:57;;;;;;;1.75;0.50;;;30.60;29.90;;;;;;4994803;28;20042;-60
2022/04/25 11:56:23;;;;;;;0.90;0.30;;;30.60;34.00;;;;;;4995776;28;20023;-61
2022/04/25 11:58:52;;;;;;;2.47;0.60;;;31.00;30.40;;;;;;4995461;28;20027;-57
2022/04/25 12:01:47;;;;;;;1.85;0.60;;;31.40;30.80;;;;;;4980431;28;20023;-62
2022/04/25 12:04:21;;;;;;;1.55;0.50;;;31.60;33.90;;;;;;4994639;28;20029;-66
2022/04/25 12:07:09;;;;;;;1.27;0.52;;;30.70;31.80;;;;;;4987769;28;20019;-60
2022/04/25 12:15:35;;;;;;;0.88;0.60;;;30.60;32.90;;;;;;4994744;28;20026;-65
2022/04/25 12:18:17;;;;;;;1.35;0.70;;;30.70;32.10;;;;;;4995338;28;20489;-65
2022/04/25 12:20:44;;;;;;;;;;;30.50;32.30;;;;;;4996281;28;20030;-64
2022/04/25 12:23:18;;;;;;;1.30;0.57;;;30.30;32.80;;;;;;4995383;28;20279;-63
2022/04/25 12:25:44;;;;;;;0.52;0.30;;;29.50;30.90;;;;;;4991606;28;20111;-63
2022/04/25 12:28:13;;;;;;;0.55;0.30;;;28.90;30.20;;;;;;4991645;28;20097;-63
2022/04/25 12:30:50;;;;;;;0.95;0.40;;;28.90;32.00;;;;;;4993209;28;20118;-59
2022/04/25 12:33:18;;;;;;;0.50;0.50;;;29.40;33.30;;;;;;4992940;28;20030;-61
2022/04/25 12:35:46;;;;;;;0.50;0.30;;;29.60;31.60;;;;;;4993526;28;20077;-63
2022/04/25 12:38:36;;;;;;;2.00;0.35;;;29.60;35.80;;;;;;4993027;28;20102;-62
2022/04/25 12:41:03;;;;;;;1.23;0.32;;;29.70;33.40;;;;;;4993495;28;20093;-60
2022/04/25 12:43:37;;;;;;;0.98;0.68;;;29.80;33.20;;;;;;4984672;28;20509;-65
2022/04/25 12:46:06;;;;;;;1.60;0.50;;;29.90;34.50;;;;;;4991850;28;20569;-63
2022/04/25 12:48:59;;;;;;;1.33;0.30;;;30.20;33.70;;;;;;4996462;28;20030;-59
2022/04/25 12:51:29;;;;;;;0.70;0.40;;;30.40;30.80;;;;;;4996719;28;20023;-61
2022/04/25 12:53:55;;;;;;;1.38;0.30;;;30.50;32.90;;;;;;4995289;28;20093;-62
2022/04/25 12:56:25;;;;;;;0.40;0.30;;;30.70;35.10;;;;;;4994758;28;20022;-61
2022/04/25 12:58:52;;;;;;;1.77;0.20;;;30.30;31.40;;;;;;4996488;28;20066;-57
2022/04/25 13:01:31;;;;;;;0.32;0.30;;;29.80;30.50;;;;;;4996341;28;20025;-63
2022/04/25 13:04:13;;;;;;;0.68;0.47;;;29.70;32.70;;;;;;4994832;28;20023;-63
2022/04/25 13:06:43;;;;;;;0.57;0.28;;;29.70;35.00;;;;;;4994919;28;20414;-60
2022/04/25 13:09:09;;;;;;;0.52;0.25;;;29.40;33.20;;;;;;4993468;28;20035;-60
2022/04/25 13:11:39;;;;;;;0.93;0.32;;;29.10;33.80;;;;;;4993582;28;20480;-59
2022/04/25 13:14:06;;;;;;;1.80;0.45;;;28.80;33.60;;;;;;4994213;28;20026;-59
2022/04/25 13:16:32;;;;;;;0.85;0.40;;;28.80;32.60;;;;;;4993945;28;20019;-60
2022/04/25 13:18:58;;;;;;;1.80;0.60;;;28.70;33.30;;;;;;4994707;28;20058;-61
2022/04/25 13:21:25;;;;;;;0.82;0.60;;;28.30;33.60;;;;;;4994842;28;20046;-61
2022/04/25 13:23:52;;;;;;;3.85;0.70;;;27.90;32.50;;;;;;4996123;28;20442;-60
2022/04/25 13:26:18;;;;;;;0.55;0.35;;;27.30;32.20;;;;;;4995977;28;20117;-63
2022/04/25 13:28:44;;;;;;;1.50;0.22;;;27.60;34.10;;;;;;4995982;28;20366;-58
2022/04/25 13:31:11;;;;;;;0.55;0.20;;;27.80;33.00;;;;;;4995623;28;20434;-61
2022/04/25 13:33:36;;;;;;;0.38;0.20;;;28.00;34.80;;;;;;4995873;28;20034;-62
2022/04/25 13:36:05;;;;;;;1.88;0.25;;;28.00;33.30;;;;;;4996081;28;20540;-59